Погода Кайбалына 2 недели

Республика Хакасия, Россия

12 - 25 июля
  • 12июля
    Сегодня
    +11°
    +27°
    Практически безоблачно
    ВремяПогодаТемператураВлажностьДавлениеВетер, м/сВероятность осадков
    01:00Небольшая облачность+15°C75 %735 мм0.6 м/с2 %
    04:00Ясно и безоблачно+13°C85 %735 мм0.1 м/с2 %
    07:00Ясно и безоблачно+15°C78 %735 мм0.5 м/с2 %
    10:00Ясно и безоблачно+21°C56 %735 мм0.7 м/с3 %
    13:00Практически безоблачно+25°C48 %735 мм1.9 м/с17 %
    16:00Ясно и безоблачно+26°C42 %734 мм2.2 м/с13 %
    19:00Практически безоблачно+24°C45 %734 мм2.6 м/с4 %
    22:00Ясно и безоблачно+18°C61 %734 мм1.2 м/с2 %
  • 13июля
    Суббота
    +12°
    +28°
    Ясно и безоблачно
    ВремяПогодаТемператураВлажностьДавлениеВетер, м/сВероятность осадков
    01:00Ясно и безоблачно+15°C71 %734 мм0.6 м/с2 %
    04:00Ясно и безоблачно+12°C83 %733 мм0.2 м/с2 %
    07:00Ясно и безоблачно+16°C76 %734 мм0.4 м/с2 %
    10:00Ясно и безоблачно+22°C50 %734 мм1.1 м/с2 %
    13:00Ясно и безоблачно+26°C37 %733 мм2.5 м/с2 %
    16:00Ясно и безоблачно+28°C33 %733 мм2.8 м/с2 %
    19:00Ясно и безоблачно+26°C33 %733 мм2.9 м/с1 %
    22:00Ясно и безоблачно+20°C54 %733 мм1.4 м/с2 %
  • 14июля
    Воскресенье
    +12°
    +30°
    Практически безоблачно
    ВремяПогодаТемператураВлажностьДавлениеВетер, м/сВероятность осадков
    01:00Ясно и безоблачно+15°C73 %733 мм0.6 м/с2 %
    04:00Ясно и безоблачно+13°C80 %733 мм0.1 м/с2 %
    07:00Ясно и безоблачно+17°C74 %733 мм0.2 м/с2 %
    10:00Ясно и безоблачно+23°C46 %733 мм0.9 м/с2 %
    13:00Практически безоблачно+27°C31 %733 мм1.9 м/с2 %
    16:00Ясно и безоблачно+29°C27 %732 мм2.8 м/с2 %
    19:00Практически безоблачно+28°C30 %732 мм3.0 м/с2 %
    22:00Ясно и безоблачно+21°C49 %732 мм1.2 м/с2 %
  • 15июля
    Понедельник
    +14°
    +31°
    Ясно и безоблачно
    ВремяПогодаТемператураВлажностьДавлениеВетер, м/сВероятность осадков
    01:00Ясно и безоблачно+16°C70 %732 мм0.6 м/с2 %
    04:00Ясно и безоблачно+13°C82 %732 мм0.0 м/с2 %
    07:00Ясно и безоблачно+18°C73 %733 мм0.0 м/с2 %
    10:00Ясно и безоблачно+24°C45 %733 мм0.5 м/с2 %
    13:00Ясно и безоблачно+28°C31 %733 мм2.3 м/с2 %
    16:00Ясно и безоблачно+30°C27 %732 мм3.0 м/с2 %
    19:00Ясно и безоблачно+28°C27 %732 мм2.6 м/с2 %
    22:00Небольшая облачность+22°C42 %733 мм1.4 м/с2 %
  • 16июля
    Вторник
    +16°
    +32°
    Небольшая облачность
    ВремяПогодаТемператураВлажностьДавлениеВетер, м/сВероятность осадков
    01:00Облачно с прояснениями+18°C59 %732 мм0.6 м/с2 %
    04:00Ясно и безоблачно+15°C71 %732 мм0.0 м/с2 %
    07:00Ясно и безоблачно+18°C68 %733 мм0.2 м/с2 %
    10:00Облачно с прояснениями+24°C38 %732 мм1.2 м/с3 %
    13:00Небольшая облачность+28°C25 %731 мм2.8 м/с5 %
    16:00Облачно с прояснениями+31°C21 %730 мм3.0 м/с5 %
    19:00Пасмурно, сплошная облачность+30°C26 %730 мм2.4 м/с5 %
    22:00Пасмурно, сплошная облачность+23°C47 %730 мм1.0 м/с5 %
Мы используем cookies
Соглашаюсь